createdAt,value
2018-09-24T00:02:07.719Z,16.10
2018-09-24T00:04:35.798Z,16.00
2018-09-24T00:07:03.879Z,16.00
2018-09-24T00:09:32.495Z,16.00
2018-09-24T00:12:00.546Z,16.00
2018-09-24T00:14:28.633Z,15.80
2018-09-24T00:16:56.682Z,16.00
2018-09-24T00:19:24.734Z,15.90
2018-09-24T00:21:52.765Z,15.90
2018-09-24T00:24:20.840Z,15.90
2018-09-24T00:26:48.917Z,15.80
2018-09-24T00:29:16.964Z,15.80
2018-09-24T00:31:45.031Z,15.80
2018-09-24T00:34:13.092Z,15.80
2018-09-24T00:36:41.138Z,15.80
2018-09-24T00:39:10.397Z,15.80
2018-09-24T00:41:38.870Z,15.80
2018-09-24T00:44:07.106Z,15.70
2018-09-24T00:46:35.534Z,15.70
2018-09-24T00:49:03.623Z,15.70
2018-09-24T00:51:31.676Z,15.80
2018-09-24T00:53:59.770Z,15.70
2018-09-24T00:56:28.012Z,15.60
2018-09-24T00:58:56.045Z,15.70
2018-09-24T01:01:24.143Z,15.60
2018-09-24T01:03:52.216Z,15.60
2018-09-24T01:06:20.349Z,15.50
2018-09-24T01:08:48.400Z,15.60
2018-09-24T01:11:16.553Z,15.60
2018-09-24T01:13:44.572Z,15.60
2018-09-24T01:16:12.643Z,15.70
2018-09-24T01:18:40.718Z,15.60
2018-09-24T01:21:08.961Z,15.60
2018-09-24T01:23:37.016Z,15.50
2018-09-24T01:26:05.105Z,15.50
2018-09-24T01:28:33.233Z,15.50
2018-09-24T01:31:01.282Z,15.40
2018-09-24T01:33:29.368Z,15.30
2018-09-24T01:35:57.419Z,15.30
2018-09-24T01:38:25.466Z,15.20
2018-09-24T01:40:53.516Z,15.10
2018-09-24T01:43:21.558Z,15.00
2018-09-24T01:45:50.073Z,14.90
2018-09-24T01:48:18.136Z,15.00
2018-09-24T01:50:46.207Z,14.90
2018-09-24T01:53:14.228Z,14.90
2018-09-24T01:55:43.480Z,15.00
2018-09-24T01:58:11.542Z,14.90
2018-09-24T02:00:39.614Z,14.90
2018-09-24T02:03:07.652Z,14.80
2018-09-24T02:05:35.711Z,14.80
2018-09-24T02:08:03.786Z,14.80
2018-09-24T02:10:31.849Z,14.60
2018-09-24T02:12:59.892Z,14.50
2018-09-24T02:15:30.726Z,14.50
2018-09-24T02:17:58.919Z,14.50
2018-09-24T02:20:27.598Z,14.60
2018-09-24T02:22:55.664Z,14.60
2018-09-24T02:25:23.747Z,14.60
2018-09-24T02:27:51.837Z,14.70
2018-09-24T02:30:20.185Z,14.70
2018-09-24T02:32:48.250Z,14.60
2018-09-24T02:35:16.382Z,14.70
2018-09-24T02:37:44.441Z,14.60
2018-09-24T02:40:18.133Z,14.60
2018-09-24T02:42:46.252Z,14.60
2018-09-24T02:45:14.300Z,14.40
2018-09-24T02:47:42.334Z,14.40
2018-09-24T02:50:10.411Z,14.30
2018-09-24T02:52:38.456Z,14.30
2018-09-24T02:55:13.611Z,14.20
2018-09-24T02:57:42.189Z,14.10
2018-09-24T03:00:10.700Z,14.10
2018-09-24T03:02:39.122Z,14.10
2018-09-24T03:05:07.286Z,14.10
2018-09-24T03:07:35.704Z,14.10
2018-09-24T03:10:03.854Z,14.10
2018-09-24T03:12:31.925Z,14.10
2018-09-24T03:14:59.981Z,14.00
2018-09-24T03:17:28.148Z,14.00
2018-09-24T03:19:56.839Z,13.90
2018-09-24T03:22:25.665Z,13.90
2018-09-24T03:24:54.618Z,14.00
2018-09-24T03:27:23.251Z,14.00
2018-09-24T03:29:51.374Z,14.00
2018-09-24T03:32:19.539Z,14.00
2018-09-24T03:34:47.580Z,14.00
2018-09-24T03:37:15.645Z,14.10
2018-09-24T03:39:43.788Z,14.10
2018-09-24T03:42:11.831Z,14.10
2018-09-24T03:44:39.869Z,14.00
2018-09-24T03:47:07.941Z,13.90
2018-09-24T03:49:36.004Z,13.90
2018-09-24T03:52:04.117Z,13.80
2018-09-24T03:54:32.144Z,13.80
2018-09-24T03:57:00.540Z,13.90
2018-09-24T03:59:28.628Z,13.90
2018-09-24T04:01:56.712Z,14.00
2018-09-24T04:04:30.313Z,13.90
2018-09-24T04:07:03.709Z,13.80
2018-09-24T04:09:37.357Z,13.80
2018-09-24T04:12:10.937Z,13.70
2018-09-24T04:14:44.641Z,13.70
2018-09-24T04:17:18.267Z,13.60
2018-09-24T04:19:51.736Z,13.60
2018-09-24T04:22:25.343Z,13.60
2018-09-24T04:24:58.999Z,13.60
2018-09-24T04:27:32.580Z,13.60
2018-09-24T04:30:06.203Z,13.50
2018-09-24T04:32:39.940Z,13.40
2018-09-24T04:35:13.588Z,13.40
2018-09-24T04:37:47.060Z,13.50
2018-09-24T04:40:20.604Z,13.60
2018-09-24T04:42:54.148Z,13.60
2018-09-24T04:45:27.620Z,13.50
2018-09-24T04:48:01.124Z,13.50
2018-09-24T04:50:34.665Z,13.50
2018-09-24T04:53:08.282Z,13.50
2018-09-24T04:55:41.703Z,13.50
2018-09-24T04:58:15.283Z,13.50
2018-09-24T05:00:49.465Z,13.50
2018-09-24T05:03:23.134Z,13.50
2018-09-24T05:05:56.684Z,13.50
2018-09-24T05:08:30.140Z,13.50
2018-09-24T05:11:03.715Z,13.50
2018-09-24T05:13:37.161Z,13.50
2018-09-24T05:16:10.817Z,13.50
2018-09-24T05:18:44.437Z,13.50
2018-09-24T05:21:17.910Z,13.50
2018-09-24T05:23:51.538Z,13.50
2018-09-24T05:26:25.213Z,13.50
2018-09-24T05:28:59.722Z,13.60
2018-09-24T05:31:33.216Z,13.60
2018-09-24T05:34:06.708Z,13.60
2018-09-24T05:36:40.293Z,13.80
2018-09-24T05:39:14.477Z,13.90
2018-09-24T05:41:48.166Z,13.90
2018-09-24T05:44:21.604Z,13.90
2018-09-24T05:46:55.223Z,14.00
2018-09-24T05:49:28.667Z,14.10
2018-09-24T05:52:02.215Z,14.10
2018-09-24T05:54:35.835Z,14.10
2018-09-24T05:57:09.456Z,14.10
2018-09-24T05:59:42.887Z,14.20
2018-09-24T06:02:16.371Z,14.30
2018-09-24T06:04:49.792Z,14.30
2018-09-24T06:07:23.409Z,14.50
2018-09-24T06:09:56.837Z,14.40
2018-09-24T06:12:30.255Z,14.40
2018-09-24T06:15:03.688Z,14.50
2018-09-24T06:17:37.260Z,14.40
2018-09-24T06:20:10.995Z,14.40
2018-09-24T06:22:44.478Z,14.40
2018-09-24T06:25:18.056Z,14.40
2018-09-24T06:27:51.620Z,14.40
2018-09-24T06:30:25.093Z,14.50
2018-09-24T06:32:58.509Z,14.60
2018-09-24T06:35:32.158Z,14.90
2018-09-24T06:38:06.412Z,15.30
2018-09-24T06:40:39.883Z,15.70
2018-09-24T06:43:13.556Z,16.00
2018-09-24T06:45:46.941Z,16.40
2018-09-24T06:48:20.543Z,16.60
2018-09-24T06:50:54.270Z,16.80
2018-09-24T06:53:27.691Z,17.10
2018-09-24T06:56:01.130Z,17.50
2018-09-24T06:58:34.807Z,17.90
2018-09-24T07:01:08.365Z,17.90
2018-09-24T07:03:41.969Z,18.40
2018-09-24T07:06:15.510Z,18.70
2018-09-24T07:08:49.118Z,18.90
2018-09-24T07:11:22.695Z,19.60
2018-09-24T07:13:56.267Z,20.20
2018-09-24T07:16:29.760Z,20.70
2018-09-24T07:19:03.292Z,21.20
2018-09-24T07:21:37.036Z,21.50
2018-09-24T07:24:10.385Z,22.00
2018-09-24T07:26:44.589Z,21.90
2018-09-24T07:29:24.902Z,22.00
2018-09-24T07:31:58.537Z,22.20
2018-09-24T07:34:32.117Z,22.20
2018-09-24T07:37:05.800Z,21.40
2018-09-24T07:39:39.407Z,21.30
2018-09-24T07:42:13.353Z,20.80
2018-09-24T07:44:46.853Z,20.60
2018-09-24T07:47:20.531Z,20.70
2018-09-24T07:49:54.075Z,20.70
2018-09-24T07:52:27.711Z,21.00
2018-09-24T07:55:01.284Z,21.60
2018-09-24T07:57:34.986Z,21.60
2018-09-24T08:00:08.562Z,20.90
2018-09-24T08:02:42.306Z,21.40
2018-09-24T08:05:15.993Z,21.10
2018-09-24T08:07:49.687Z,19.80
2018-09-24T08:10:23.237Z,19.60
2018-09-24T08:12:56.795Z,19.80
2018-09-24T08:15:30.389Z,19.90
2018-09-24T08:18:04.178Z,19.80
2018-09-24T08:20:37.817Z,20.20
2018-09-24T08:23:11.371Z,20.10
2018-09-24T08:25:45.073Z,19.70
2018-09-24T08:28:19.666Z,20.60
2018-09-24T08:30:53.868Z,20.30
2018-09-24T08:33:27.479Z,20.30
2018-09-24T08:36:01.214Z,20.00
2018-09-24T08:38:34.734Z,20.40
2018-09-24T08:41:08.386Z,21.70
2018-09-24T08:43:42.100Z,21.60
2018-09-24T08:46:15.539Z,22.90
2018-09-24T08:48:49.151Z,23.80
2018-09-24T08:51:22.810Z,24.40
2018-09-24T08:53:56.443Z,24.60
2018-09-24T08:56:29.884Z,24.60
2018-09-24T08:59:03.430Z,24.80
2018-09-24T09:01:37.071Z,25.10
2018-09-24T09:04:11.238Z,25.20
2018-09-24T09:06:44.836Z,26.00
2018-09-24T09:09:18.564Z,26.30
2018-09-24T09:11:52.077Z,25.80
2018-09-24T09:14:25.562Z,24.10
2018-09-24T09:16:59.206Z,23.00
2018-09-24T09:19:32.806Z,24.90
2018-09-24T09:22:06.368Z,26.00
2018-09-24T09:24:40.003Z,26.20
2018-09-24T09:27:13.675Z,24.90
2018-09-24T09:29:47.230Z,24.50
2018-09-24T09:32:20.844Z,25.60
2018-09-24T09:34:54.390Z,24.50
2018-09-24T09:37:28.107Z,23.90
2018-09-24T09:40:01.642Z,24.60
2018-09-24T09:42:35.089Z,24.90
2018-09-24T09:45:08.815Z,24.00
2018-09-24T09:47:42.450Z,25.20
2018-09-24T09:50:15.940Z,24.80
2018-09-24T09:52:49.410Z,24.20
2018-09-24T09:55:22.910Z,23.60
2018-09-24T09:57:56.595Z,24.90
2018-09-24T10:00:30.042Z,25.50
2018-09-24T10:03:03.670Z,25.90
2018-09-24T10:05:37.348Z,25.30
2018-09-24T10:08:11.010Z,25.90
2018-09-24T10:10:44.593Z,24.90
2018-09-24T10:13:18.059Z,25.10
2018-09-24T10:15:51.681Z,23.40
2018-09-24T10:18:25.298Z,22.50
2018-09-24T10:20:58.759Z,21.70
2018-09-24T10:23:32.410Z,23.20
2018-09-24T10:26:05.942Z,23.50
2018-09-24T10:28:39.602Z,22.80
2018-09-24T10:31:14.505Z,23.50
2018-09-24T10:33:48.192Z,23.80
2018-09-24T10:36:21.535Z,22.20
2018-09-24T10:38:55.158Z,22.90
2018-09-24T10:41:28.663Z,23.50
2018-09-24T10:44:02.354Z,23.90
2018-09-24T10:46:36.051Z,23.90
2018-09-24T10:49:09.749Z,23.30
2018-09-24T10:51:43.397Z,23.10
2018-09-24T10:54:17.054Z,23.60
2018-09-24T10:56:50.676Z,24.40
2018-09-24T10:59:24.155Z,23.60
2018-09-24T11:01:57.733Z,22.90
2018-09-24T11:04:31.329Z,23.60
2018-09-24T11:07:05.003Z,24.40
2018-09-24T11:09:38.437Z,24.10
2018-09-24T11:12:11.930Z,25.40
2018-09-24T11:14:45.754Z,25.20
2018-09-24T11:17:19.478Z,26.20
2018-09-24T11:19:53.012Z,26.50
2018-09-24T11:22:26.728Z,26.50
2018-09-24T11:25:00.284Z,24.40
2018-09-24T11:27:33.741Z,25.60
2018-09-24T11:30:07.256Z,26.50
2018-09-24T11:32:40.931Z,27.20
2018-09-24T11:35:14.601Z,27.20
2018-09-24T11:37:48.238Z,27.00
2018-09-24T11:40:21.723Z,26.60
2018-09-24T11:42:55.378Z,27.40
2018-09-24T11:45:28.944Z,26.90
2018-09-24T11:48:02.569Z,26.60
2018-09-24T11:50:36.222Z,25.70
2018-09-24T11:53:09.980Z,24.90
2018-09-24T11:55:43.425Z,23.70
2018-09-24T11:58:17.017Z,23.80
2018-09-24T12:00:50.477Z,24.90
2018-09-24T12:03:24.089Z,25.30
2018-09-24T12:05:57.758Z,24.90
2018-09-24T12:08:31.304Z,25.60
2018-09-24T12:11:05.013Z,26.70
2018-09-24T12:13:38.637Z,25.50
2018-09-24T12:16:12.111Z,26.00
2018-09-24T12:18:45.713Z,25.60
2018-09-24T12:21:19.424Z,26.80
2018-09-24T12:23:52.935Z,27.60
2018-09-24T12:26:26.524Z,26.30
2018-09-24T12:29:00.220Z,24.00
2018-09-24T12:31:33.829Z,22.80
2018-09-24T12:34:07.475Z,22.50
2018-09-24T12:36:40.930Z,22.80
2018-09-24T12:39:14.668Z,25.00
2018-09-24T12:41:48.226Z,25.20
2018-09-24T12:44:21.744Z,24.50
2018-09-24T12:46:55.236Z,25.00
2018-09-24T12:49:28.652Z,25.20
2018-09-24T12:52:02.172Z,25.00
2018-09-24T12:54:35.740Z,24.50
2018-09-24T12:57:09.404Z,26.00
2018-09-24T12:59:42.980Z,26.70
2018-09-24T13:02:16.627Z,25.70
2018-09-24T13:04:50.281Z,24.70
2018-09-24T13:07:23.939Z,24.00
2018-09-24T13:09:57.582Z,23.00
2018-09-24T13:12:31.284Z,21.70
2018-09-24T13:15:04.979Z,20.70
2018-09-24T13:17:38.610Z,20.60
2018-09-24T13:20:12.405Z,20.90
2018-09-24T13:22:46.052Z,20.50
2018-09-24T13:25:19.718Z,20.00
2018-09-24T13:27:53.400Z,20.50
2018-09-24T13:30:27.079Z,20.60
2018-09-24T13:33:00.838Z,21.30
2018-09-24T13:35:34.327Z,21.80
2018-09-24T13:38:07.811Z,21.20
2018-09-24T13:40:41.432Z,21.70
2018-09-24T13:43:15.004Z,23.10
2018-09-24T13:45:48.396Z,24.20
2018-09-24T13:48:21.931Z,25.10
2018-09-24T13:50:55.560Z,25.30
2018-09-24T13:53:29.323Z,26.20
2018-09-24T13:56:02.885Z,26.60
2018-09-24T13:58:36.436Z,25.60
2018-09-24T14:01:09.945Z,26.50
2018-09-24T14:03:43.285Z,23.50
2018-09-24T14:06:16.859Z,21.50
2018-09-24T14:08:50.253Z,20.40
2018-09-24T14:11:23.760Z,19.10
2018-09-24T14:13:57.121Z,18.80
2018-09-24T14:16:30.864Z,18.80
2018-09-24T14:19:04.448Z,19.10
2018-09-24T14:21:37.986Z,18.30
2018-09-24T14:24:11.501Z,18.10
2018-09-24T14:26:44.821Z,17.70
2018-09-24T14:29:18.355Z,16.90
2018-09-24T14:31:51.970Z,16.90
2018-09-24T14:34:25.386Z,17.20
2018-09-24T14:36:58.761Z,17.20
2018-09-24T14:39:32.377Z,17.00
2018-09-24T14:42:06.044Z,16.80
2018-09-24T14:44:39.745Z,16.60
2018-09-24T14:47:13.341Z,16.60
2018-09-24T14:49:47.024Z,16.70
2018-09-24T14:52:21.400Z,16.70
2018-09-24T14:54:54.806Z,16.30
2018-09-24T14:57:28.405Z,16.30
2018-09-24T15:00:01.986Z,16.40
2018-09-24T15:02:35.576Z,16.30
2018-09-24T15:05:09.342Z,16.20
2018-09-24T15:07:42.855Z,16.20
2018-09-24T15:10:16.370Z,16.20
2018-09-24T15:12:49.768Z,16.10
2018-09-24T15:15:23.264Z,16.00
2018-09-24T15:17:56.702Z,16.00
2018-09-24T15:20:30.366Z,15.80
2018-09-24T15:23:04.127Z,16.00
2018-09-24T15:25:37.826Z,16.30
2018-09-24T15:28:11.338Z,16.20
2018-09-24T15:30:45.023Z,16.30
2018-09-24T15:33:18.762Z,16.30
2018-09-24T15:35:52.467Z,16.30
2018-09-24T15:38:26.125Z,16.30
2018-09-24T15:40:59.671Z,16.30
2018-09-24T15:43:33.130Z,16.50
2018-09-24T15:46:06.850Z,16.60
2018-09-24T15:48:40.388Z,16.50
2018-09-24T15:51:14.626Z,16.40
2018-09-24T15:53:48.092Z,16.30
2018-09-24T15:56:21.541Z,16.20
2018-09-24T15:58:54.968Z,16.10
2018-09-24T16:01:28.390Z,15.80
2018-09-24T16:04:02.096Z,15.60
2018-09-24T16:06:35.727Z,15.50
2018-09-24T16:09:10.558Z,15.40
2018-09-24T16:11:44.166Z,15.30
2018-09-24T16:14:17.690Z,15.20
2018-09-24T16:16:51.211Z,15.10
2018-09-24T16:19:24.875Z,15.00
2018-09-24T16:21:58.581Z,14.90
2018-09-24T16:24:32.222Z,14.80
2018-09-24T16:27:05.838Z,14.60
2018-09-24T16:29:39.484Z,14.40
2018-09-24T16:32:12.983Z,14.30
2018-09-24T16:34:46.531Z,14.20
2018-09-24T16:37:20.074Z,14.00
2018-09-24T16:39:53.715Z,13.90
2018-09-24T16:42:27.407Z,13.80
2018-09-24T16:45:01.649Z,13.80
2018-09-24T16:47:35.760Z,13.70
2018-09-24T16:50:09.484Z,13.60
2018-09-24T16:52:44.052Z,13.60
2018-09-24T16:55:17.833Z,13.50
2018-09-24T16:57:51.289Z,13.40
2018-09-24T17:00:25.239Z,13.30
2018-09-24T17:02:58.933Z,13.10
2018-09-24T17:05:32.598Z,13.10
2018-09-24T17:08:06.381Z,13.10
2018-09-24T17:10:40.241Z,13.00
2018-09-24T17:13:13.835Z,12.90
2018-09-24T17:15:47.872Z,12.80
2018-09-24T17:18:21.712Z,12.80
2018-09-24T17:20:55.249Z,12.60
2018-09-24T17:23:28.904Z,12.60
2018-09-24T17:26:02.528Z,12.50
2018-09-24T17:28:36.210Z,12.40
2018-09-24T17:31:09.692Z,12.30
2018-09-24T17:33:43.220Z,12.30
2018-09-24T17:36:16.929Z,12.30
2018-09-24T17:38:50.513Z,12.30
2018-09-24T17:41:24.170Z,12.20
2018-09-24T17:43:58.401Z,12.20
2018-09-24T17:46:31.903Z,12.20
2018-09-24T17:49:05.398Z,12.10
2018-09-24T17:51:38.865Z,12.10
2018-09-24T17:54:12.483Z,12.10
2018-09-24T17:56:46.097Z,12.00
2018-09-24T17:59:20.559Z,12.10
2018-09-24T18:01:54.172Z,12.00
2018-09-24T18:04:27.762Z,11.90
2018-09-24T18:07:01.317Z,11.90
2018-09-24T18:09:35.032Z,11.80
2018-09-24T18:12:08.763Z,11.70
2018-09-24T18:14:42.425Z,11.70
2018-09-24T18:17:15.975Z,11.70
2018-09-24T18:19:49.590Z,11.70
2018-09-24T18:22:23.177Z,11.60
2018-09-24T18:24:57.670Z,11.50
2018-09-24T18:27:31.409Z,11.50
2018-09-24T18:30:04.864Z,11.60
2018-09-24T18:32:38.444Z,11.60
2018-09-24T18:35:12.114Z,11.60
2018-09-24T18:37:45.566Z,11.60
2018-09-24T18:40:19.265Z,11.60
2018-09-24T18:42:52.846Z,11.50
2018-09-24T18:45:26.554Z,11.40
2018-09-24T18:48:00.042Z,11.40
2018-09-24T18:50:33.699Z,11.40
2018-09-24T18:53:07.412Z,11.30
2018-09-24T18:55:40.985Z,11.30
2018-09-24T18:58:14.636Z,11.20
2018-09-24T19:00:48.217Z,11.20
2018-09-24T19:03:21.891Z,11.20
2018-09-24T19:05:55.538Z,11.40
2018-09-24T19:08:29.143Z,11.20
2018-09-24T19:11:02.729Z,11.20
2018-09-24T19:13:36.149Z,11.10
2018-09-24T19:16:09.824Z,11.20
2018-09-24T19:18:43.234Z,11.20
2018-09-24T19:21:16.846Z,11.20
2018-09-24T19:23:50.536Z,11.10
2018-09-24T19:26:24.706Z,11.20
2018-09-24T19:28:58.343Z,11.30
2018-09-24T19:31:32.035Z,11.10
2018-09-24T19:34:05.612Z,11.10
2018-09-24T19:36:39.196Z,11.10
2018-09-24T19:39:13.774Z,11.10
2018-09-24T19:41:47.655Z,11.00
2018-09-24T19:44:21.323Z,11.10
2018-09-24T19:46:54.892Z,11.00
2018-09-24T19:49:28.289Z,11.00
2018-09-24T19:52:01.975Z,11.00
2018-09-24T19:54:35.478Z,10.80
2018-09-24T19:57:09.003Z,10.80
2018-09-24T19:59:42.608Z,10.80
2018-09-24T20:02:16.293Z,10.80
2018-09-24T20:04:49.817Z,10.70
2018-09-24T20:07:23.375Z,10.80
2018-09-24T20:09:56.985Z,10.70
2018-09-24T20:12:30.562Z,10.70
2018-09-24T20:15:03.973Z,10.60
2018-09-24T20:17:37.665Z,10.60
2018-09-24T20:20:11.105Z,10.60
2018-09-24T20:22:44.648Z,10.50
2018-09-24T20:25:18.061Z,10.50
2018-09-24T20:27:51.569Z,10.40
2018-09-24T20:30:25.021Z,10.40
2018-09-24T20:32:58.559Z,10.50
2018-09-24T20:35:32.106Z,10.40
2018-09-24T20:38:05.730Z,10.40
2018-09-24T20:40:39.321Z,10.30
2018-09-24T20:43:12.880Z,10.40
2018-09-24T20:45:46.299Z,10.30
2018-09-24T20:48:19.913Z,10.30
2018-09-24T20:50:53.520Z,10.30
2018-09-24T20:53:27.152Z,10.10
2018-09-24T20:56:00.560Z,10.20
2018-09-24T20:58:34.017Z,10.00
2018-09-24T21:01:07.700Z,10.00
2018-09-24T21:03:41.302Z,9.90
2018-09-24T21:06:14.980Z,10.00
2018-09-24T21:08:48.419Z,9.90
2018-09-24T21:11:22.083Z,9.90
2018-09-24T21:13:55.565Z,9.90
2018-09-24T21:16:28.980Z,9.90
2018-09-24T21:19:02.513Z,9.90
2018-09-24T21:21:36.176Z,9.90
2018-09-24T21:24:09.789Z,10.00
2018-09-24T21:26:43.336Z,10.00
2018-09-24T21:29:16.836Z,10.00
2018-09-24T21:31:50.530Z,10.00
2018-09-24T21:34:24.102Z,10.00
2018-09-24T21:36:57.553Z,10.00
2018-09-24T21:39:31.038Z,10.00
2018-09-24T21:42:04.465Z,9.90
2018-09-24T21:44:37.952Z,10.00
2018-09-24T21:47:11.574Z,9.90
2018-09-24T21:49:45.253Z,10.00
2018-09-24T21:52:18.845Z,9.90
2018-09-24T21:54:52.306Z,9.90
2018-09-24T21:57:25.858Z,9.90
2018-09-24T21:59:59.401Z,9.90
2018-09-24T22:02:33.084Z,9.90
2018-09-24T22:05:06.702Z,9.80
2018-09-24T22:07:40.291Z,9.80
2018-09-24T22:10:13.857Z,9.80
2018-09-24T22:12:47.409Z,9.70
2018-09-24T22:15:20.858Z,9.70
2018-09-24T22:17:54.537Z,9.80
2018-09-24T22:20:28.137Z,9.70
2018-09-24T22:23:01.683Z,9.80
2018-09-24T22:25:35.158Z,9.70
2018-09-24T22:28:08.775Z,9.90
2018-09-24T22:30:42.293Z,9.90
2018-09-24T22:33:15.842Z,10.00
2018-09-24T22:35:49.512Z,10.00
2018-09-24T22:38:23.002Z,9.90
2018-09-24T22:40:56.457Z,9.80
2018-09-24T22:43:30.077Z,9.80
2018-09-24T22:46:03.566Z,9.90
2018-09-24T22:48:37.281Z,10.00
2018-09-24T22:51:10.865Z,10.00
2018-09-24T22:53:44.507Z,10.00
2018-09-24T22:56:18.066Z,10.00
2018-09-24T22:58:51.499Z,10.20
2018-09-24T23:01:24.890Z,10.20
2018-09-24T23:03:58.438Z,10.00
2018-09-24T23:06:31.963Z,10.00
2018-09-24T23:09:05.410Z,9.90
2018-09-24T23:11:38.934Z,9.90
2018-09-24T23:14:12.569Z,9.90
2018-09-24T23:16:46.269Z,9.70
2018-09-24T23:19:19.942Z,9.60
2018-09-24T23:21:53.519Z,9.50
2018-09-24T23:24:27.080Z,9.40
2018-09-24T23:27:00.479Z,9.30
2018-09-24T23:29:34.166Z,9.40
2018-09-24T23:32:07.867Z,9.50
2018-09-24T23:34:41.456Z,9.40
2018-09-24T23:37:15.184Z,9.60
2018-09-24T23:39:48.847Z,9.60
2018-09-24T23:42:22.493Z,9.60
2018-09-24T23:44:56.082Z,9.50
2018-09-24T23:47:29.686Z,9.40
2018-09-24T23:50:03.218Z,9.40
2018-09-24T23:52:36.808Z,9.50
2018-09-24T23:55:10.441Z,9.50
2018-09-24T23:57:43.960Z,9.40
